createdAt,value
2024-01-20T09:46:17.538Z,93.31
2024-01-20T09:48:46.017Z,93.01
2024-01-20T09:51:13.206Z,92.49
2024-01-20T09:53:40.710Z,92.11
2024-01-20T09:56:07.452Z,91.43
2024-01-20T09:58:38.552Z,92.26
2024-01-20T10:01:08.008Z,92.46
2024-01-20T10:03:39.777Z,91.87
2024-01-20T10:06:06.850Z,89.75
2024-01-20T10:08:35.263Z,90.17
2024-01-20T10:11:07.316Z,90.08
2024-01-20T10:13:33.978Z,91.15
2024-01-20T10:16:00.632Z,91.50
2024-01-20T10:18:28.507Z,90.41
2024-01-20T10:21:04.769Z,91.53
2024-01-20T10:23:35.032Z,90.37
2024-01-20T10:26:06.536Z,89.68
2024-01-20T10:28:34.734Z,88.89
2024-01-20T10:31:10.547Z,87.93
2024-01-20T10:33:38.436Z,89.93
2024-01-20T10:36:18.891Z,90.25
2024-01-20T10:40:00.641Z,89.77
2024-01-20T10:42:31.811Z,90.31
2024-01-20T10:45:05.399Z,90.37
2024-01-20T10:47:41.424Z,89.97
2024-01-20T10:50:09.304Z,90.42
2024-01-20T11:01:23.936Z,89.40
2024-01-20T11:03:50.892Z,89.61
2024-01-20T11:06:26.226Z,87.92
2024-01-20T11:08:53.879Z,88.47
2024-01-20T11:11:21.478Z,88.72
2024-01-20T11:13:51.137Z,88.47
2024-01-20T11:16:22.454Z,87.13
2024-01-20T11:18:49.705Z,88.26
2024-01-20T11:21:17.987Z,88.71
2024-01-20T11:24:08.040Z,88.50
2024-01-20T11:26:36.571Z,86.26
2024-01-20T11:29:05.922Z,85.52
2024-01-20T11:31:33.662Z,86.29
2024-01-20T11:34:03.066Z,87.48
2024-01-20T11:36:31.159Z,86.65
2024-01-20T11:38:59.053Z,86.00
2024-01-20T11:41:25.919Z,86.02
2024-01-20T11:43:52.588Z,85.56
2024-01-20T11:46:20.447Z,85.90
2024-01-20T11:48:50.892Z,86.34
2024-01-20T11:51:17.969Z,86.20
2024-01-20T11:53:46.541Z,85.45
2024-01-20T11:56:15.744Z,85.57
2024-01-20T11:58:42.412Z,84.98
2024-01-20T12:01:09.268Z,84.11
2024-01-20T12:03:36.255Z,83.70
2024-01-20T12:06:09.685Z,82.96
2024-01-20T12:08:42.203Z,82.53
2024-01-20T12:11:18.011Z,81.02
2024-01-20T12:13:48.733Z,81.66
2024-01-20T12:16:16.537Z,82.47
2024-01-20T12:18:43.410Z,82.10
2024-01-20T12:21:10.347Z,80.92
2024-01-20T12:23:37.056Z,80.67
2024-01-20T12:26:12.452Z,78.90
2024-01-20T12:28:39.195Z,78.60
2024-01-20T12:31:05.910Z,78.38
2024-01-20T12:33:32.928Z,79.58
2024-01-20T12:35:59.962Z,78.55
2024-01-20T12:38:26.628Z,77.40
2024-01-20T12:40:53.412Z,76.63
2024-01-20T12:43:20.141Z,76.91
2024-01-20T12:45:46.978Z,76.70
2024-01-20T12:48:13.878Z,76.63
2024-01-20T12:50:40.598Z,77.45
2024-01-20T12:59:49.920Z,73.47
2024-01-20T13:02:16.756Z,73.29
2024-01-20T13:09:59.000Z,70.55
2024-01-20T13:16:44.169Z,72.15
2024-01-20T13:32:19.602Z,64.49
2024-01-20T13:44:26.026Z,61.76
2024-01-20T13:46:52.667Z,58.72
2024-01-20T13:50:21.140Z,57.03
2024-01-20T13:52:50.676Z,58.05
2024-01-20T13:55:18.334Z,59.15
2024-01-20T14:06:31.453Z,62.29
2024-01-20T14:48:55.581Z,72.41
2024-01-20T14:51:22.589Z,74.25
2024-01-20T14:53:49.296Z,74.25
2024-01-20T14:56:15.988Z,75.05
2024-01-20T14:58:42.725Z,74.59
2024-01-20T15:01:09.977Z,75.00
2024-01-20T15:07:54.487Z,76.83
2024-01-20T15:10:22.462Z,77.02
2024-01-20T15:12:49.949Z,76.32
2024-01-20T15:23:53.516Z,77.84
2024-01-20T15:26:34.881Z,78.25
2024-01-20T15:29:01.590Z,78.15
2024-01-20T15:31:28.581Z,78.53
2024-01-20T15:33:57.675Z,79.26
2024-01-20T15:36:24.815Z,79.61
2024-01-20T15:40:01.675Z,80.16
2024-01-20T15:43:56.474Z,80.69
2024-01-20T15:46:23.430Z,81.56
2024-01-20T15:48:50.432Z,81.50
2024-01-20T15:51:17.244Z,81.05
2024-01-20T15:53:45.845Z,81.96
2024-01-20T15:56:14.858Z,82.78
2024-01-20T15:58:41.945Z,83.33
2024-01-20T16:01:08.776Z,83.60
2024-01-20T16:03:35.706Z,84.02
2024-01-20T16:06:02.582Z,84.59
2024-01-20T16:08:29.430Z,85.06
2024-01-20T16:10:56.265Z,85.58
2024-01-20T16:13:22.918Z,86.31
2024-01-20T16:15:49.632Z,87.01
2024-01-20T16:18:16.537Z,87.14
2024-01-20T16:20:43.542Z,87.20
2024-01-20T16:23:10.891Z,87.12
2024-01-20T16:25:38.187Z,87.28
2024-01-20T16:28:05.247Z,87.33
2024-01-20T16:30:32.541Z,87.32
2024-01-20T16:32:59.281Z,88.04
2024-01-20T16:35:26.036Z,88.15
2024-01-20T16:37:52.763Z,88.41
2024-01-20T16:40:19.559Z,88.81
2024-01-20T16:42:46.367Z,88.76
2024-01-20T16:45:13.226Z,89.45
2024-01-20T16:47:40.351Z,91.20
2024-01-20T16:50:07.129Z,91.16
2024-01-20T16:52:33.841Z,91.45
2024-01-20T16:55:14.004Z,92.32
2024-01-20T16:57:42.784Z,92.91
2024-01-20T17:00:10.199Z,93.61
2024-01-20T17:02:36.989Z,94.39
2024-01-20T17:05:03.992Z,94.24
2024-01-20T17:07:30.770Z,94.78
2024-01-20T17:09:57.401Z,94.74
2024-01-20T17:12:26.119Z,95.44
2024-01-20T17:14:52.985Z,96.57
2024-01-20T17:17:19.686Z,97.14
2024-01-20T17:19:46.611Z,96.66
2024-01-20T17:22:13.326Z,96.90
2024-01-20T17:24:40.050Z,96.89
2024-01-20T17:27:06.777Z,97.58
2024-01-20T17:29:33.924Z,97.97
2024-01-20T17:32:04.272Z,98.01
2024-01-20T17:34:33.657Z,98.15
2024-01-20T17:37:01.123Z,97.82
2024-01-20T17:39:29.270Z,98.66
2024-01-20T17:41:58.825Z,99.07
2024-01-20T17:44:25.696Z,99.39
2024-01-20T17:46:54.614Z,100.00
2024-01-20T17:49:21.348Z,100.00
2024-01-20T17:51:48.297Z,100.00
2024-01-20T17:54:15.355Z,100.00
2024-01-20T17:56:42.116Z,100.00
2024-01-20T17:59:08.909Z,100.00
2024-01-20T18:01:35.646Z,100.00
2024-01-20T18:04:02.594Z,100.00
2024-01-20T18:06:29.373Z,100.00
2024-01-20T18:08:56.095Z,100.00
2024-01-20T18:11:22.946Z,100.00
2024-01-20T18:13:49.979Z,100.00
2024-01-20T18:16:16.737Z,100.00
2024-01-20T18:18:44.717Z,100.00
2024-01-20T18:21:11.594Z,100.00
2024-01-20T18:23:39.593Z,100.00
2024-01-20T18:26:06.329Z,100.00
2024-01-20T18:28:33.122Z,100.00
2024-01-20T18:31:00.805Z,100.00
2024-01-20T18:33:27.828Z,100.00
2024-01-20T18:35:54.544Z,100.00
2024-01-20T18:38:21.317Z,100.00
2024-01-20T18:40:48.303Z,100.00
2024-01-20T18:43:15.002Z,100.00
2024-01-20T18:45:41.719Z,100.00
2024-01-20T18:48:09.284Z,100.00
2024-01-20T18:50:37.167Z,100.00
2024-01-20T18:53:03.967Z,100.00
2024-01-20T18:55:30.600Z,100.00
2024-01-20T18:57:57.604Z,100.00
2024-01-20T19:00:25.163Z,100.00
2024-01-20T19:02:52.550Z,100.00
2024-01-20T19:05:19.723Z,100.00
2024-01-20T19:07:46.444Z,100.00
2024-01-20T19:10:13.194Z,100.00
2024-01-20T19:12:44.124Z,100.00
2024-01-20T19:15:11.214Z,100.00
2024-01-20T19:17:38.006Z,100.00
2024-01-20T19:20:11.602Z,100.00
2024-01-20T19:22:38.312Z,100.00
2024-01-20T19:25:05.707Z,100.00
2024-01-20T19:27:32.405Z,100.00
2024-01-20T19:29:59.141Z,100.00
2024-01-20T19:32:25.814Z,100.00
2024-01-20T19:34:52.588Z,100.00
2024-01-20T19:37:19.335Z,100.00
2024-01-20T19:39:46.359Z,100.00
2024-01-20T19:42:13.932Z,100.00
2024-01-20T19:44:40.650Z,100.00
2024-01-20T19:47:07.673Z,100.00
2024-01-20T19:49:34.774Z,100.00
2024-01-20T19:52:03.117Z,100.00
2024-01-20T19:54:30.318Z,100.00
2024-01-20T19:57:05.215Z,100.00
2024-01-20T19:59:31.995Z,100.00
2024-01-20T20:01:58.971Z,100.00
2024-01-20T20:04:25.903Z,100.00
2024-01-20T20:07:13.936Z,100.00
2024-01-20T20:09:43.279Z,100.00
2024-01-20T20:16:17.813Z,100.00
2024-01-20T20:18:46.894Z,100.00
2024-01-20T20:21:15.016Z,100.00
2024-01-20T20:23:45.764Z,100.00
2024-01-20T20:26:12.918Z,100.00
2024-01-20T20:28:46.497Z,100.00
2024-01-20T20:31:17.062Z,100.00
2024-01-20T20:33:49.218Z,100.00
2024-01-20T20:47:05.508Z,100.00
